createdAt,value
2019-05-20T00:00:27.902Z,6.27
2019-05-20T00:02:55.147Z,6.33
2019-05-20T00:05:23.736Z,5.90
2019-05-20T00:07:50.957Z,6.00
2019-05-20T00:10:18.208Z,5.80
2019-05-20T00:12:45.454Z,6.50
2019-05-20T00:15:13.187Z,5.97
2019-05-20T00:17:40.447Z,6.57
2019-05-20T00:20:08.665Z,6.47
2019-05-20T00:22:35.951Z,5.27
2019-05-20T00:25:05.171Z,6.07
2019-05-20T00:27:34.114Z,6.40
2019-05-20T00:30:01.329Z,6.13
2019-05-20T00:32:40.600Z,5.90
2019-05-20T00:34:58.279Z,5.83
2019-05-20T00:37:25.569Z,5.77
2019-05-20T00:39:52.878Z,6.67
2019-05-20T00:42:20.129Z,6.20
2019-05-20T00:44:47.392Z,5.53
2019-05-20T00:47:16.520Z,6.33
2019-05-20T00:49:43.790Z,6.50
2019-05-20T00:52:12.317Z,5.80
2019-05-20T00:54:41.157Z,6.27
2019-05-20T00:57:08.677Z,6.10
2019-05-20T00:59:36.894Z,6.93
2019-05-20T01:02:04.188Z,6.77
2019-05-20T01:04:31.492Z,6.50
2019-05-20T01:07:00.901Z,6.43
2019-05-20T01:09:29.603Z,6.80
2019-05-20T01:11:57.055Z,7.30
2019-05-20T01:14:24.294Z,7.40
2019-05-20T01:16:51.591Z,7.40
2019-05-20T01:19:19.388Z,8.37
2019-05-20T01:21:46.609Z,7.30
2019-05-20T01:24:14.921Z,7.50
2019-05-20T01:26:42.339Z,7.83
2019-05-20T01:29:09.547Z,7.40
2019-05-20T01:31:36.820Z,7.17
2019-05-20T01:34:04.205Z,8.03
2019-05-20T01:36:31.374Z,8.30
2019-05-20T01:38:59.037Z,8.10
2019-05-20T01:41:26.388Z,9.40
2019-05-20T01:43:53.631Z,8.07
2019-05-20T01:46:20.830Z,8.23
2019-05-20T01:48:48.095Z,9.50
2019-05-20T01:51:15.499Z,8.63
2019-05-20T01:53:42.740Z,8.57
2019-05-20T01:56:10.440Z,8.80
2019-05-20T01:58:39.762Z,8.97
2019-05-20T02:01:07.134Z,8.10
2019-05-20T02:03:34.475Z,8.30
2019-05-20T02:06:01.716Z,10.50
2019-05-20T02:08:29.612Z,9.40
2019-05-20T02:10:57.032Z,9.00
2019-05-20T02:13:27.499Z,9.07
2019-05-20T02:16:03.425Z,10.03
2019-05-20T02:18:30.631Z,10.00
2019-05-20T02:20:58.511Z,9.53
2019-05-20T02:23:26.137Z,10.93
2019-05-20T02:25:53.387Z,9.97
2019-05-20T02:28:20.789Z,9.27
2019-05-20T02:30:48.104Z,9.63
2019-05-20T02:33:15.317Z,9.73
2019-05-20T02:35:42.430Z,8.97
2019-05-20T02:38:09.720Z,9.33
2019-05-20T02:40:37.392Z,9.17
2019-05-20T02:43:04.635Z,9.50
2019-05-20T02:45:32.581Z,9.50
2019-05-20T02:47:59.857Z,8.50
2019-05-20T02:50:27.151Z,9.50
2019-05-20T02:52:54.766Z,7.73
2019-05-20T02:55:22.032Z,8.87
2019-05-20T02:57:49.238Z,8.37
2019-05-20T03:00:16.627Z,8.50
2019-05-20T03:02:44.128Z,9.13
2019-05-20T03:05:11.588Z,8.93
2019-05-20T03:07:39.257Z,8.70
2019-05-20T03:10:07.009Z,8.90
2019-05-20T03:12:34.250Z,9.20
2019-05-20T03:15:01.647Z,8.53
2019-05-20T03:17:29.371Z,8.80
2019-05-20T03:19:56.584Z,9.53
2019-05-20T03:22:23.787Z,8.90
2019-05-20T03:24:51.381Z,9.40
2019-05-20T03:27:18.589Z,8.70
2019-05-20T03:29:45.876Z,8.27
2019-05-20T03:32:13.108Z,8.87
2019-05-20T03:34:46.780Z,8.90
2019-05-20T03:37:09.931Z,9.87
2019-05-20T03:39:37.258Z,9.80
2019-05-20T03:42:04.781Z,10.17
2019-05-20T03:44:31.951Z,9.33
2019-05-20T03:46:59.433Z,10.60
2019-05-20T03:49:26.712Z,9.30
2019-05-20T03:51:55.783Z,9.40
2019-05-20T03:54:23.037Z,8.57
2019-05-20T03:56:50.864Z,9.47
2019-05-20T03:59:18.413Z,9.23
2019-05-20T04:01:45.909Z,9.53
2019-05-20T04:04:13.703Z,9.30
2019-05-20T04:06:40.941Z,8.30
2019-05-20T04:09:08.275Z,8.47
2019-05-20T04:11:35.569Z,9.63
2019-05-20T04:14:03.017Z,8.90
2019-05-20T04:16:30.281Z,8.53
2019-05-20T04:18:57.598Z,8.83
2019-05-20T04:21:24.909Z,7.87
2019-05-20T04:23:52.231Z,8.20
2019-05-20T04:26:21.726Z,8.13
2019-05-20T04:28:49.262Z,8.13
2019-05-20T04:31:16.610Z,7.70
2019-05-20T04:33:44.016Z,8.17
2019-05-20T04:36:11.585Z,7.27
2019-05-20T04:38:38.882Z,7.30
2019-05-20T04:41:06.403Z,7.60
2019-05-20T04:43:34.048Z,7.90
2019-05-20T04:46:01.813Z,7.47
2019-05-20T04:48:29.526Z,8.60
2019-05-20T04:50:57.330Z,7.07
2019-05-20T04:53:24.548Z,6.40
2019-05-20T04:55:52.114Z,5.80
2019-05-20T04:58:20.058Z,6.20
2019-05-20T05:00:52.333Z,6.30
2019-05-20T05:03:19.813Z,6.83
2019-05-20T05:05:47.915Z,7.27
2019-05-20T05:08:15.980Z,7.00
2019-05-20T05:10:43.324Z,6.47
2019-05-20T05:13:10.641Z,7.40
2019-05-20T05:15:37.940Z,7.17
2019-05-20T05:18:05.178Z,6.70
2019-05-20T05:20:34.197Z,7.67
2019-05-20T05:23:01.822Z,7.03
2019-05-20T05:25:29.171Z,8.63
2019-05-20T05:27:56.726Z,7.93
2019-05-20T05:30:26.697Z,6.90
2019-05-20T05:32:54.308Z,7.80
2019-05-20T05:35:22.580Z,8.00
2019-05-20T05:37:50.248Z,9.13
2019-05-20T05:40:18.371Z,10.13
2019-05-20T05:42:45.757Z,10.20
2019-05-20T05:45:13.324Z,9.80
2019-05-20T05:47:40.461Z,11.77
2019-05-20T05:50:08.322Z,10.73
2019-05-20T05:52:35.934Z,12.80
2019-05-20T05:55:04.325Z,12.20
2019-05-20T05:57:31.594Z,12.63
2019-05-20T05:59:59.373Z,13.10
2019-05-20T06:02:26.940Z,11.90
2019-05-20T06:04:54.416Z,14.67
2019-05-20T06:07:21.726Z,13.90
2019-05-20T06:09:48.932Z,14.83
2019-05-20T06:12:16.590Z,15.30
2019-05-20T06:14:43.872Z,15.80
2019-05-20T06:17:11.069Z,16.30
2019-05-20T06:19:38.842Z,15.43
2019-05-20T06:22:06.652Z,82.83
2019-05-20T06:24:33.895Z,16.40
2019-05-20T06:27:01.256Z,22.87
2019-05-20T06:29:28.503Z,16.57
2019-05-20T06:31:55.956Z,15.97
2019-05-20T06:34:23.276Z,16.00
2019-05-20T06:36:52.684Z,15.40
2019-05-20T06:39:20.366Z,17.00
2019-05-20T06:41:48.012Z,16.40
2019-05-20T06:44:18.231Z,15.20
2019-05-20T06:46:45.549Z,15.30
2019-05-20T06:49:14.193Z,14.97
2019-05-20T06:51:41.414Z,13.80
2019-05-20T06:54:09.045Z,14.57
2019-05-20T06:56:36.602Z,15.33
2019-05-20T06:59:04.120Z,19.40
2019-05-20T07:01:31.510Z,13.70
2019-05-20T07:03:59.018Z,12.53
2019-05-20T07:06:44.083Z,31.00
2019-05-20T07:08:55.447Z,14.53
2019-05-20T07:11:22.734Z,12.10
2019-05-20T07:13:50.046Z,13.37
2019-05-20T07:16:17.409Z,13.23
2019-05-20T07:18:44.648Z,13.80
2019-05-20T07:21:12.027Z,12.87
2019-05-20T07:23:39.245Z,11.60
2019-05-20T07:26:06.498Z,11.30
2019-05-20T07:28:33.896Z,11.40
2019-05-20T07:31:01.132Z,11.43
2019-05-20T07:33:28.407Z,10.27
2019-05-20T07:35:55.618Z,9.77
2019-05-20T07:38:22.921Z,10.60
2019-05-20T07:40:50.218Z,10.67
2019-05-20T07:43:17.566Z,9.43
2019-05-20T07:45:47.112Z,10.00
2019-05-20T07:48:15.801Z,10.30
2019-05-20T07:50:43.314Z,9.17
2019-05-20T07:53:12.442Z,9.47
2019-05-20T07:55:49.107Z,9.40
2019-05-20T07:58:20.272Z,11.30
2019-05-20T08:00:47.594Z,9.77
2019-05-20T08:03:15.139Z,10.43
2019-05-20T08:05:42.285Z,10.80
2019-05-20T08:08:09.571Z,10.20
2019-05-20T08:10:37.102Z,10.40
2019-05-20T08:13:04.787Z,11.20
2019-05-20T08:15:32.182Z,10.67
2019-05-20T08:17:59.430Z,9.40
2019-05-20T08:20:26.692Z,10.40
2019-05-20T08:22:53.945Z,9.13
2019-05-20T08:25:21.263Z,9.67
2019-05-20T08:27:49.408Z,10.50
2019-05-20T08:30:24.498Z,10.40
2019-05-20T08:32:51.818Z,12.20
2019-05-20T08:35:19.097Z,11.67
2019-05-20T08:37:46.492Z,11.20
2019-05-20T08:40:14.140Z,10.90
2019-05-20T08:42:41.432Z,10.97
2019-05-20T08:45:09.188Z,10.97
2019-05-20T08:47:36.732Z,12.27
2019-05-20T08:50:07.367Z,12.23
2019-05-20T08:52:34.508Z,11.80
2019-05-20T08:55:02.362Z,12.57
2019-05-20T08:57:30.309Z,11.50
2019-05-20T09:00:00.863Z,11.60
2019-05-20T09:02:28.482Z,10.13
2019-05-20T09:04:55.696Z,10.57
2019-05-20T09:07:23.041Z,9.93
2019-05-20T09:09:50.371Z,9.20
2019-05-20T09:12:17.641Z,8.43
2019-05-20T09:14:45.002Z,8.70
2019-05-20T09:17:12.169Z,8.13
2019-05-20T09:19:39.873Z,8.17
2019-05-20T09:22:07.363Z,7.43
2019-05-20T09:24:34.751Z,7.63
2019-05-20T09:27:02.139Z,6.70
2019-05-20T09:29:29.771Z,7.42
2019-05-20T09:31:57.238Z,7.78
2019-05-20T09:34:24.909Z,7.12
2019-05-20T09:36:52.156Z,5.85
2019-05-20T09:39:19.397Z,5.90
2019-05-20T09:41:46.700Z,5.97
2019-05-20T09:44:14.021Z,5.00
2019-05-20T09:46:41.333Z,5.37
2019-05-20T09:49:08.573Z,5.37
2019-05-20T09:51:35.864Z,6.08
2019-05-20T09:54:03.868Z,6.27
2019-05-20T09:56:31.398Z,6.10
2019-05-20T09:58:59.358Z,6.27
2019-05-20T10:01:27.012Z,7.57
2019-05-20T10:03:55.085Z,7.67
2019-05-20T10:06:22.464Z,8.30
2019-05-20T10:08:50.813Z,8.30
2019-05-20T10:11:18.482Z,8.90
2019-05-20T10:13:45.753Z,8.20
2019-05-20T10:16:12.991Z,8.20
2019-05-20T10:18:40.311Z,8.87
2019-05-20T10:21:07.863Z,9.00
2019-05-20T10:23:35.127Z,8.30
2019-05-20T10:26:03.106Z,7.67
2019-05-20T10:28:30.429Z,8.43
2019-05-20T10:30:58.121Z,7.43
2019-05-20T10:33:25.682Z,7.80
2019-05-20T10:35:53.385Z,8.23
2019-05-20T10:38:21.337Z,8.73
2019-05-20T10:40:48.761Z,8.97
2019-05-20T10:43:16.809Z,8.33
2019-05-20T10:45:44.270Z,9.20
2019-05-20T10:48:11.527Z,9.17
2019-05-20T10:50:38.737Z,9.33
2019-05-20T10:53:06.280Z,9.10
2019-05-20T10:55:34.160Z,11.07
2019-05-20T10:58:01.346Z,11.67
2019-05-20T11:00:28.647Z,10.13
2019-05-20T11:02:56.169Z,12.17
2019-05-20T11:05:23.474Z,13.70
2019-05-20T11:07:50.868Z,13.00
2019-05-20T11:10:18.614Z,13.00
2019-05-20T11:12:46.041Z,12.50
2019-05-20T11:15:14.075Z,12.57
2019-05-20T11:17:41.201Z,13.37
2019-05-20T11:20:08.919Z,11.70
2019-05-20T11:22:36.825Z,11.23
2019-05-20T11:25:04.149Z,11.30
2019-05-20T11:27:31.473Z,10.87
2019-05-20T11:29:58.913Z,10.70
2019-05-20T11:32:26.540Z,9.97
2019-05-20T11:34:54.147Z,10.57
2019-05-20T11:37:21.699Z,11.13
2019-05-20T11:39:49.224Z,17.73
2019-05-20T11:42:16.869Z,12.70
2019-05-20T11:44:44.141Z,13.30
2019-05-20T11:47:11.371Z,13.70
2019-05-20T11:49:38.851Z,13.57
2019-05-20T11:52:06.166Z,12.60
2019-05-20T11:54:33.594Z,14.70
2019-05-20T11:57:00.808Z,16.50
2019-05-20T11:59:28.060Z,16.63
2019-05-20T12:01:55.521Z,15.83
2019-05-20T12:04:23.789Z,20.43
2019-05-20T12:06:51.116Z,16.93
2019-05-20T12:09:18.425Z,20.43
2019-05-20T12:11:45.739Z,18.70
2019-05-20T12:14:13.044Z,18.20
2019-05-20T12:16:40.348Z,17.93
2019-05-20T12:19:07.607Z,18.90
2019-05-20T12:21:34.878Z,20.00
2019-05-20T12:24:03.057Z,20.83
2019-05-20T12:26:31.068Z,21.87
2019-05-20T12:28:58.954Z,39.47
2019-05-20T12:31:26.212Z,47.87
2019-05-20T12:33:53.542Z,21.93
2019-05-20T12:36:21.947Z,20.30
2019-05-20T12:38:49.187Z,20.07
2019-05-20T12:41:16.517Z,23.30
2019-05-20T12:43:44.988Z,22.60
2019-05-20T12:46:12.902Z,23.90
2019-05-20T12:48:40.537Z,23.53
2019-05-20T12:51:07.938Z,22.97
2019-05-20T12:53:35.625Z,22.67
2019-05-20T12:56:03.665Z,23.50
2019-05-20T12:58:30.945Z,23.70
2019-05-20T13:00:58.229Z,23.50
2019-05-20T13:03:25.841Z,23.17
2019-05-20T13:05:53.038Z,25.30
2019-05-20T13:08:20.399Z,24.87
2019-05-20T13:10:47.784Z,26.03
2019-05-20T13:13:15.091Z,25.50
2019-05-20T13:15:42.672Z,25.37
2019-05-20T13:18:09.819Z,22.87
2019-05-20T13:20:37.276Z,25.03
2019-05-20T13:23:07.074Z,23.57
2019-05-20T13:25:34.228Z,25.57
2019-05-20T13:28:01.865Z,24.40
2019-05-20T13:30:29.462Z,24.43
2019-05-20T13:32:56.742Z,25.00
2019-05-20T13:35:24.663Z,25.57
2019-05-20T13:37:52.870Z,27.40
2019-05-20T13:40:20.675Z,28.30
2019-05-20T13:42:48.287Z,28.80
2019-05-20T13:45:17.890Z,29.23
2019-05-20T13:47:45.373Z,30.30
2019-05-20T13:50:12.875Z,29.80
2019-05-20T13:52:40.200Z,31.90
2019-05-20T13:55:07.795Z,29.50
2019-05-20T13:57:35.205Z,30.03
2019-05-20T14:00:02.836Z,31.20
2019-05-20T14:02:30.314Z,31.70
2019-05-20T14:04:57.678Z,33.20
2019-05-20T14:07:24.971Z,32.80
2019-05-20T14:09:52.916Z,33.10
2019-05-20T14:12:20.754Z,32.20
2019-05-20T14:14:48.018Z,32.67
2019-05-20T14:17:16.397Z,32.43
2019-05-20T14:19:43.816Z,34.10
2019-05-20T14:22:11.237Z,33.20
2019-05-20T14:24:38.889Z,32.20
2019-05-20T14:27:06.181Z,31.37
2019-05-20T14:29:33.650Z,34.10
2019-05-20T14:32:01.482Z,32.17
2019-05-20T14:34:28.829Z,31.50
2019-05-20T14:36:56.732Z,31.43
2019-05-20T14:39:24.020Z,30.57
2019-05-20T14:41:51.759Z,30.67
2019-05-20T14:44:19.434Z,31.20
2019-05-20T14:46:47.033Z,29.40
2019-05-20T14:49:15.019Z,32.23
2019-05-20T14:51:42.444Z,30.77
2019-05-20T14:54:09.746Z,29.73
2019-05-20T14:56:37.050Z,31.90
2019-05-20T14:59:04.436Z,31.00
2019-05-20T15:01:32.418Z,31.10
2019-05-20T15:03:59.629Z,31.50
2019-05-20T15:06:26.901Z,30.83
2019-05-20T15:08:54.205Z,34.37
2019-05-20T15:11:35.665Z,30.77
2019-05-20T15:13:50.746Z,32.60
2019-05-20T15:16:17.997Z,32.90
2019-05-20T15:18:45.249Z,32.13
2019-05-20T15:21:13.179Z,33.60
2019-05-20T15:23:40.591Z,32.57
2019-05-20T15:26:07.997Z,31.80
2019-05-20T15:28:36.062Z,31.70
2019-05-20T15:31:03.762Z,32.17
2019-05-20T15:33:31.004Z,30.60
2019-05-20T15:35:58.611Z,32.23
2019-05-20T15:38:25.875Z,30.30
2019-05-20T15:40:53.100Z,33.50
2019-05-20T15:43:20.431Z,32.17
2019-05-20T15:45:49.154Z,32.23
2019-05-20T15:48:16.834Z,31.80
2019-05-20T15:50:44.046Z,32.30
2019-05-20T15:53:12.805Z,29.53
2019-05-20T15:55:40.714Z,31.03
2019-05-20T15:58:07.964Z,30.70
2019-05-20T16:00:35.321Z,31.80
2019-05-20T16:03:02.867Z,29.97
2019-05-20T16:05:30.066Z,29.50
2019-05-20T16:07:57.404Z,30.80
2019-05-20T16:10:24.647Z,30.10
2019-05-20T16:12:51.970Z,29.40
2019-05-20T16:15:19.316Z,29.97
2019-05-20T16:17:48.501Z,30.73
2019-05-20T16:20:15.836Z,29.47
2019-05-20T16:22:43.392Z,31.27
2019-05-20T16:25:10.831Z,29.47
2019-05-20T16:27:38.096Z,28.83
2019-05-20T16:30:07.357Z,29.87
2019-05-20T16:32:34.992Z,30.20
2019-05-20T16:35:02.925Z,29.60
2019-05-20T16:37:30.630Z,28.17
2019-05-20T16:39:57.944Z,30.13
2019-05-20T16:42:25.439Z,27.17
2019-05-20T16:44:52.707Z,27.60
2019-05-20T16:47:20.380Z,30.10
2019-05-20T16:49:48.512Z,28.20
2019-05-20T16:52:17.854Z,28.30
2019-05-20T16:54:45.425Z,27.90
2019-05-20T16:57:13.735Z,27.37
2019-05-20T16:59:45.307Z,27.37
2019-05-20T17:02:12.691Z,31.03
2019-05-20T17:04:40.256Z,30.57
2019-05-20T17:07:07.877Z,29.57
2019-05-20T17:09:35.151Z,29.07
2019-05-20T17:12:02.861Z,29.50
2019-05-20T17:14:30.233Z,29.20
2019-05-20T17:16:58.067Z,28.87
2019-05-20T17:19:25.290Z,30.10
2019-05-20T17:21:53.068Z,31.87
2019-05-20T17:24:20.596Z,29.70
2019-05-20T17:26:47.862Z,29.50
2019-05-20T17:29:15.400Z,31.10
2019-05-20T17:31:42.839Z,30.40
2019-05-20T17:34:10.884Z,29.97
2019-05-20T17:36:38.127Z,31.80
2019-05-20T17:39:06.122Z,29.97
2019-05-20T17:41:33.567Z,30.50
2019-05-20T17:44:00.865Z,31.50
2019-05-20T17:46:28.269Z,31.57
2019-05-20T17:48:56.008Z,31.20
2019-05-20T17:51:23.582Z,31.20
2019-05-20T17:53:51.143Z,29.63
2019-05-20T17:56:19.286Z,32.77
2019-05-20T17:58:47.126Z,33.10
2019-05-20T18:01:16.104Z,30.30
2019-05-20T18:03:43.590Z,33.13
2019-05-20T18:06:12.976Z,30.50
2019-05-20T18:08:43.782Z,28.00
2019-05-20T18:11:11.025Z,30.83
2019-05-20T18:13:41.584Z,30.60
2019-05-20T18:16:09.171Z,27.77
2019-05-20T18:18:36.417Z,30.00
2019-05-20T18:21:03.674Z,27.07
2019-05-20T18:23:34.964Z,29.37
2019-05-20T18:26:04.727Z,26.93
2019-05-20T18:28:32.085Z,29.10
2019-05-20T18:30:59.355Z,28.50
2019-05-20T18:33:26.803Z,25.43
2019-05-20T18:35:54.056Z,26.77
2019-05-20T18:38:21.646Z,25.57
2019-05-20T18:40:49.495Z,26.77
2019-05-20T18:43:28.858Z,26.20
2019-05-20T18:45:56.217Z,25.67
2019-05-20T18:48:23.449Z,26.97
2019-05-20T18:50:50.937Z,26.20
2019-05-20T18:53:18.576Z,27.90
2019-05-20T18:55:45.772Z,26.40
2019-05-20T18:58:13.058Z,28.80
2019-05-20T19:00:40.655Z,29.47
2019-05-20T19:03:08.252Z,28.70
2019-05-20T19:05:35.458Z,28.00
2019-05-20T19:08:02.981Z,27.20
2019-05-20T19:10:30.159Z,29.17
2019-05-20T19:12:57.489Z,27.90
2019-05-20T19:15:25.382Z,31.00
2019-05-20T19:17:52.510Z,29.57
2019-05-20T19:20:22.851Z,32.93
2019-05-20T19:22:49.190Z,30.33
2019-05-20T19:25:16.857Z,30.40
2019-05-20T19:27:44.122Z,33.80
2019-05-20T19:30:13.950Z,33.77
2019-05-20T19:32:41.202Z,32.27
2019-05-20T19:35:08.429Z,31.87
2019-05-20T19:37:35.779Z,32.47
2019-05-20T19:40:03.735Z,32.80
2019-05-20T19:42:31.197Z,36.23
2019-05-20T19:44:58.509Z,33.50
2019-05-20T19:47:26.098Z,33.13
2019-05-20T19:49:54.953Z,31.80
2019-05-20T19:52:22.242Z,33.20
2019-05-20T19:54:49.634Z,36.40
2019-05-20T19:57:17.378Z,35.00
2019-05-20T19:59:44.689Z,33.77
2019-05-20T20:02:17.456Z,33.57
2019-05-20T20:04:41.543Z,32.80
2019-05-20T20:07:08.830Z,35.33
2019-05-20T20:09:36.168Z,35.23
2019-05-20T20:12:03.876Z,35.90
2019-05-20T20:14:32.259Z,33.60
2019-05-20T20:16:59.900Z,33.60
2019-05-20T20:19:27.243Z,34.60
2019-05-20T20:21:54.562Z,32.63
2019-05-20T20:24:22.406Z,36.13
2019-05-20T20:26:50.407Z,36.63
2019-05-20T20:29:18.023Z,35.80
2019-05-20T20:31:45.318Z,34.57
2019-05-20T20:34:12.530Z,34.27
2019-05-20T20:36:40.462Z,33.90
2019-05-20T20:39:09.011Z,37.00
2019-05-20T20:41:36.446Z,35.57
2019-05-20T20:44:04.062Z,35.17
2019-05-20T20:46:31.393Z,31.13
2019-05-20T20:48:58.627Z,28.50
2019-05-20T20:51:26.337Z,28.83
2019-05-20T20:53:53.722Z,29.97
2019-05-20T20:56:25.217Z,28.97
2019-05-20T20:58:50.493Z,30.03
2019-05-20T21:01:17.972Z,30.13
2019-05-20T21:03:45.537Z,29.83
2019-05-20T21:06:13.020Z,30.27
2019-05-20T21:08:41.506Z,28.07
2019-05-20T21:11:08.794Z,29.17
2019-05-20T21:13:36.097Z,29.60
2019-05-20T21:16:03.953Z,26.07
2019-05-20T21:18:31.489Z,24.83
2019-05-20T21:20:58.889Z,23.90
2019-05-20T21:23:26.185Z,23.73
2019-05-20T21:25:53.774Z,23.97
2019-05-20T21:28:21.238Z,25.90
2019-05-20T21:30:48.671Z,25.60
2019-05-20T21:33:18.016Z,26.70
2019-05-20T21:35:45.712Z,30.70
2019-05-20T21:38:13.017Z,30.27
2019-05-20T21:40:40.261Z,28.73
2019-05-20T21:43:08.153Z,29.00
2019-05-20T21:45:35.538Z,29.60
2019-05-20T21:48:03.934Z,29.00
2019-05-20T21:50:31.177Z,28.10
2019-05-20T21:52:58.474Z,29.80
2019-05-20T21:55:25.750Z,30.73
2019-05-20T21:57:53.023Z,28.57
2019-05-20T22:00:26.934Z,31.00
2019-05-20T22:02:55.148Z,32.90
2019-05-20T22:05:22.799Z,34.73
2019-05-20T22:07:50.522Z,37.03
2019-05-20T22:10:18.199Z,38.30
2019-05-20T22:12:45.551Z,39.03
2019-05-20T22:15:12.837Z,41.83
2019-05-20T22:17:40.017Z,39.87
2019-05-20T22:20:07.507Z,42.03
2019-05-20T22:22:40.878Z,40.93
2019-05-20T22:25:13.010Z,44.77
2019-05-20T22:27:40.316Z,44.53
2019-05-20T22:30:08.120Z,42.97
2019-05-20T22:32:35.650Z,43.70
2019-05-20T22:35:03.307Z,43.00
2019-05-20T22:37:30.945Z,42.83
2019-05-20T22:39:58.746Z,44.47
2019-05-20T22:42:26.290Z,42.43
2019-05-20T22:44:53.584Z,42.20
2019-05-20T22:47:20.940Z,39.47
2019-05-20T22:49:48.325Z,40.47
2019-05-20T22:52:15.688Z,37.90
2019-05-20T22:54:44.028Z,37.90
2019-05-20T22:57:11.457Z,33.73
2019-05-20T22:59:38.849Z,32.40
2019-05-20T23:02:06.129Z,32.27
2019-05-20T23:04:33.228Z,32.37
2019-05-20T23:07:00.509Z,32.60
2019-05-20T23:09:27.807Z,33.77
2019-05-20T23:11:55.072Z,34.10
2019-05-20T23:14:24.564Z,32.97
2019-05-20T23:16:51.979Z,33.60
2019-05-20T23:19:19.257Z,33.50
2019-05-20T23:21:46.511Z,36.13
2019-05-20T23:24:13.859Z,33.50
2019-05-20T23:26:41.888Z,35.77
2019-05-20T23:29:09.178Z,32.97
2019-05-20T23:31:36.444Z,33.40
2019-05-20T23:34:12.706Z,31.93
2019-05-20T23:36:33.179Z,34.50
2019-05-20T23:39:00.490Z,34.20
2019-05-20T23:41:27.713Z,33.63
2019-05-20T23:43:54.955Z,35.70
2019-05-20T23:46:22.223Z,35.00
2019-05-20T23:48:49.841Z,37.17
2019-05-20T23:51:17.132Z,35.90
2019-05-20T23:53:44.447Z,36.50
2019-05-20T23:56:12.174Z,36.00
2019-05-20T23:58:39.600Z,37.37
